KSDF Airport Diagram

We have created a template for each of the higher traffic airports in the vZID airspace. They include KCMH, KCRW, KCVG, KDAY, KIND, KLEX and KSDF. You wil find usefull information including the airport diagram, weather, and specific airport procedures.

KSDF Weather

[Source: ADDS]
METAR
KSDF 180356Z 36013KT 10SM OVC250 10/01 A3043 RMK AO2 SLP305 T01000011 =
KSDF 172322Z 1800/1906 32008KT P6SM FEW250 FM180400 01006KT P6SM SCT250 FM181100 05007KT P6SM FEW250
TAF
KSDF 172322Z 1800/1906 32008KT P6SM FEW250 FM180400 01006KT P6SM SCT250 FM181100 05007KT P6SM FEW250 =

KSDF Operations

Calm Wind Configuration is runways 17L and 17R.

Runway 17L typically departs north and east.

Runway 17R typicall departs south and west.

 

JSN Epic template designed by JoomlaShine.com